Time;durP1;ratioP1;P1;durP2;ratioP2;P2;SDS_P1;SDS_P2;PMS_P1;PMS_P2;Temp;Humidity;BMP_temperature;BMP_pressure;BME280_temperature;BME280_humidity;BME280_pressure;Samples;Min_cycle;Max_cycle;Signal;HPM_P1;HPM_P2
2022/05/21 00:00:20;;;;;;;24.13;9.52;;;;;;;;;;5016989;28;20046;-71
2022/05/21 00:02:46;;;;;;;20.98;8.25;;;;;;;;;;5027820;28;20049;-70
2022/05/21 00:05:13;;;;;;;22.92;9.32;;;;;;;;;;5029149;28;20454;-71
2022/05/21 00:07:39;;;;;;;20.40;9.13;;;;;;;;;;5024742;28;20065;-70
2022/05/21 00:10:07;;;;;;;20.85;8.40;;;;;;;;;;5013484;28;20562;-72
2022/05/21 00:12:34;;;;;;;20.00;8.77;;;;;;;;;;5010210;28;20074;-72
2022/05/21 00:15:00;;;;;;;;;;;;;;;;;;5024548;28;20124;-71
2022/05/21 00:17:26;;;;;;;19.23;9.65;;;;;;;;;;5010091;28;19997;-72
2022/05/21 00:19:52;;;;;;;24.65;9.93;;;;;;;;;;5015803;28;20080;-72
2022/05/21 00:22:18;;;;;;;20.42;9.35;;;;;;;;;;5008795;28;20046;-73
2022/05/21 00:24:44;;;;;;;24.83;10.30;;;;;;;;;;5017925;28;20454;-71
2022/05/21 00:27:11;;;;;;;21.52;10.20;;;;;;;;;;5009043;28;20046;-69
2022/05/21 00:29:37;;;;;;;22.25;11.15;;;;;;;;;;5009889;28;20045;-71
2022/05/21 00:32:04;;;;;;;26.75;11.50;;;;;;;;;;5007610;28;20057;-72
2022/05/21 00:34:31;;;;;;;31.48;12.48;;;;;;;;;;5009716;28;20052;-70
2022/05/21 00:36:57;;;;;;;27.10;13.43;;;;;;;;;;5019660;28;20124;-70
2022/05/21 00:39:23;;;;;;;27.25;13.77;;;;;;;;;;5027833;28;20048;-69
2022/05/21 00:41:50;;;;;;;28.08;14.98;;;;;;;;;;5029253;28;20140;-71
2022/05/21 00:44:17;;;;;;;33.15;16.08;;;;;;;;;;5028704;28;20401;-72
2022/05/21 00:46:43;;;;;;;;;;;;;;;;;;5026143;28;20053;-71
2022/05/21 00:49:15;;;;;;;32.10;15.98;;;;;;;;;;5026343;28;19925;-72
2022/05/21 00:51:53;;;;;;;29.02;15.85;;;;;;;;;;5028978;28;20050;-72
2022/05/21 00:54:22;;;;;;;32.25;16.17;;;;;;;;;;5027326;28;20053;-70
2022/05/21 00:56:50;;;;;;;36.58;16.35;;;;;;;;;;5016334;28;20473;-72
2022/05/21 01:02:03;;;;;;;27.95;15.30;;;;;;;;;;5017805;28;20076;-68
2022/05/21 01:04:30;;;;;;;28.17;15.00;;;;;;;;;;5028743;28;20064;-68
2022/05/21 01:06:57;;;;;;;33.55;15.68;;;;;;;;;;5020856;28;20048;-68
2022/05/21 01:09:23;;;;;;;;;;;;;;;;;;5019468;28;20038;-68
2022/05/21 01:11:49;;;;;;;33.35;16.35;;;;;;;;;;5019786;28;20265;-68
2022/05/21 01:14:16;;;;;;;31.88;17.73;;;;;;;;;;5028036;28;20052;-68
2022/05/21 01:16:44;;;;;;;33.30;18.35;;;;;;;;;;5025012;28;20053;-68
2022/05/21 01:19:11;;;;;;;41.95;20.65;;;;;;;;;;4987462;28;20081;-69
2022/05/21 01:21:38;;;;;;;36.97;20.20;;;;;;;;;;4989160;28;20173;-70
2022/05/21 01:24:05;;;;;;;37.95;21.40;;;;;;;;;;4989089;28;20146;-71
2022/05/21 01:26:32;;;;;;;40.22;20.67;;;;;;;;;;5006523;28;20131;-69
2022/05/21 01:28:58;;;;;;;40.13;20.38;;;;;;;;;;5010021;28;20057;-70
2022/05/21 01:31:24;;;;;;;39.95;21.70;;;;;;;;;;5006336;28;20053;-69
2022/05/21 01:33:50;;;;;;;39.95;21.88;;;;;;;;;;5007093;28;20153;-71
2022/05/21 01:36:17;;;;;;;43.17;22.63;;;;;;;;;;5008215;28;20054;-70
2022/05/21 01:38:45;;;;;;;47.22;23.27;;;;;;;;;;5010377;28;20092;-70
2022/05/21 01:41:12;;;;;;;44.30;24.50;;;;;;;;;;5027577;28;20049;-70
2022/05/21 01:46:24;;;;;;;44.63;24.83;;;;;;;;;;4988017;28;20057;-69
2022/05/21 01:48:50;;;;;;;49.13;26.45;;;;;;;;;;4992468;28;20149;-71
2022/05/21 01:51:16;;;;;;;;;;;;;;;;;;5027401;28;20144;-70
2022/05/21 01:53:43;;;;;;;47.45;28.40;;;;;;;;;;5027815;28;20380;-70
2022/05/21 01:56:10;;;;;;;49.70;27.90;;;;;;;;;;5027625;28;20124;-69
2022/05/21 01:58:36;;;;;;;51.63;29.27;;;;;;;;;;5027670;28;20433;-70
2022/05/21 02:01:03;;;;;;;57.40;29.30;;;;;;;;;;5014599;28;20073;-72
2022/05/21 02:03:29;;;;;;;54.45;30.15;;;;;;;;;;5027104;28;20085;-69
2022/05/21 02:05:55;;;;;;;50.75;29.58;;;;;;;;;;5027448;28;20045;-69
2022/05/21 02:08:21;;;;;;;53.28;31.90;;;;;;;;;;5025849;28;20106;-69
2022/05/21 02:10:47;;;;;;;;;;;;;;;;;;5013053;28;20137;-70
2022/05/21 02:13:15;;;;;;;62.88;33.20;;;;;;;;;;5021727;28;19968;-69
2022/05/21 02:15:41;;;;;;;63.40;33.40;;;;;;;;;;5027830;28;20148;-68
2022/05/21 02:18:07;;;;;;;59.33;34.03;;;;;;;;;;5025616;28;20434;-69
2022/05/21 02:20:33;;;;;;;64.05;35.00;;;;;;;;;;5016539;28;20148;-68
2022/05/21 02:22:59;;;;;;;59.15;34.42;;;;;;;;;;5006897;28;20081;-68
2022/05/21 02:25:25;;;;;;;60.63;35.00;;;;;;;;;;5010978;28;20140;-68
2022/05/21 02:27:51;;;;;;;57.63;34.67;;;;;;;;;;5025628;28;20104;-68
2022/05/21 02:30:18;;;;;;;65.22;35.28;;;;;;;;;;5025336;28;20357;-68
2022/05/21 02:32:44;;;;;;;59.65;35.70;;;;;;;;;;5008066;28;20145;-71
2022/05/21 02:35:10;;;;;;;66.22;36.17;;;;;;;;;;5008211;28;20061;-69
2022/05/21 02:40:21;;;;;;;63.33;34.95;;;;;;;;;;5024322;28;20052;-69
2022/05/21 02:42:48;;;;;;;74.15;34.35;;;;;;;;;;5012367;28;20045;-70
2022/05/21 02:45:22;;;;;;;66.60;35.85;;;;;;;;;;5027687;28;20049;-70
2022/05/21 02:47:48;;;;;;;63.08;32.72;;;;;;;;;;5025785;28;20049;-70
2022/05/21 02:50:19;;;;;;;67.65;33.88;;;;;;;;;;5023872;28;20041;-72
2022/05/21 02:52:45;;;;;;;68.53;32.90;;;;;;;;;;5018178;28;20136;-70
2022/05/21 02:55:12;;;;;;;65.85;31.98;;;;;;;;;;5027336;28;20496;-70
2022/05/21 02:57:38;;;;;;;65.43;33.20;;;;;;;;;;5024591;28;20838;-71
2022/05/21 03:00:07;;;;;;;60.33;32.22;;;;;;;;;;5014275;28;20049;-69
2022/05/21 03:02:33;;;;;;;58.58;29.33;;;;;;;;;;5020501;28;20059;-69
2022/05/21 03:04:59;;;;;;;56.42;30.05;;;;;;;;;;4987921;28;20086;-71
2022/05/21 03:07:25;;;;;;;56.13;26.60;;;;;;;;;;5006771;28;20069;-69
2022/05/21 03:12:36;;;;;;;44.78;20.65;;;;;;;;;;5025388;28;20073;-68
2022/05/21 03:15:03;;;;;;;50.88;22.00;;;;;;;;;;5007921;28;20328;-71
2022/05/21 03:17:29;;;;;;;;;;;;;;;;;;5008018;28;20053;-72
2022/05/21 03:19:55;;;;;;;43.15;18.75;;;;;;;;;;5012018;28;20027;-69
2022/05/21 03:22:21;;;;;;;52.80;17.98;;;;;;;;;;5024791;28;20049;-70
2022/05/21 03:24:47;;;;;;;;;;;;;;;;;;5027275;28;20078;-71
2022/05/21 03:27:13;;;;;;;42.20;15.73;;;;;;;;;;5011132;28;19929;-70
2022/05/21 03:29:39;;;;;;;46.83;15.73;;;;;;;;;;5010349;28;20054;-70
2022/05/21 03:32:07;;;;;;;35.58;14.52;;;;;;;;;;5018770;28;20355;-71
2022/05/21 03:34:34;;;;;;;41.83;14.52;;;;;;;;;;5008257;28;20438;-71
2022/05/21 03:37:00;;;;;;;36.83;13.45;;;;;;;;;;5010765;28;20069;-71
2022/05/21 03:39:28;;;;;;;39.50;13.93;;;;;;;;;;5009307;28;20038;-72
2022/05/21 03:41:54;;;;;;;44.60;13.93;;;;;;;;;;5008670;28;20378;-71
2022/05/21 03:44:20;;;;;;;38.17;13.30;;;;;;;;;;5010739;28;20062;-71
2022/05/21 03:46:46;;;;;;;38.63;11.15;;;;;;;;;;5010247;28;20050;-71
2022/05/21 03:49:12;;;;;;;44.53;12.85;;;;;;;;;;5010401;28;20088;-70
2022/05/21 03:51:39;;;;;;;36.40;11.52;;;;;;;;;;5016407;28;20105;-70
2022/05/21 03:54:05;;;;;;;46.75;11.20;;;;;;;;;;5011890;28;20061;-70
2022/05/21 03:56:31;;;;;;;35.50;10.25;;;;;;;;;;5011735;28;20061;-76
2022/05/21 03:58:57;;;;;;;34.08;11.43;;;;;;;;;;5025112;28;21394;-70
2022/05/21 04:01:23;;;;;;;50.33;11.15;;;;;;;;;;5010339;28;20081;-70
2022/05/21 04:03:50;;;;;;;37.88;10.52;;;;;;;;;;5013901;28;20077;-70
2022/05/21 04:06:17;;;;;;;32.90;8.50;;;;;;;;;;5010144;28;20046;-69
2022/05/21 04:08:43;;;;;;;33.20;9.50;;;;;;;;;;5009775;28;20056;-70
2022/05/21 04:11:09;;;;;;;37.70;9.65;;;;;;;;;;5008091;28;20074;-70
2022/05/21 04:13:35;;;;;;;36.47;10.98;;;;;;;;;;5007371;28;20477;-70
2022/05/21 04:16:01;;;;;;;31.70;10.10;;;;;;;;;;5028669;28;20521;-69
2022/05/21 04:18:27;;;;;;;30.17;9.18;;;;;;;;;;5029006;28;20038;-67
2022/05/21 04:20:53;;;;;;;28.98;8.18;;;;;;;;;;5015386;28;20042;-68
2022/05/21 04:23:19;;;;;;;36.67;9.38;;;;;;;;;;5008572;28;20100;-69
2022/05/21 04:25:47;;;;;;;28.90;8.73;;;;;;;;;;5009309;28;20050;-70
2022/05/21 04:28:13;;;;;;;27.73;8.20;;;;;;;;;;5009615;28;20053;-69
2022/05/21 04:30:39;;;;;;;27.35;8.40;;;;;;;;;;5008304;28;20054;-69
2022/05/21 04:33:05;;;;;;;;;;;;;;;;;;5022400;28;20056;-69
2022/05/21 04:38:17;;;;;;;24.25;7.65;;;;;;;;;;5029207;28;20438;-68
2022/05/21 04:40:43;;;;;;;;;;;;;;;;;;5025040;28;20049;-68
2022/05/21 04:43:09;;;;;;;29.67;7.65;;;;;;;;;;5031722;28;19932;-70
2022/05/21 04:45:36;;;;;;;27.42;7.25;;;;;;;;;;5028422;28;20041;-69
2022/05/21 04:48:01;;;;;;;;;;;;;;;;;;5028336;28;20041;-69
2022/05/21 04:50:28;;;;;;;24.27;6.13;;;;;;;;;;5022184;28;19929;-70
2022/05/21 04:52:54;;;;;;;20.98;7.10;;;;;;;;;;5021714;28;20049;-71
2022/05/21 04:55:20;;;;;;;24.50;7.57;;;;;;;;;;5026357;28;20057;-69
2022/05/21 04:57:46;;;;;;;24.83;6.78;;;;;;;;;;5024043;28;20453;-68
2022/05/21 05:00:12;;;;;;;25.52;6.50;;;;;;;;;;5013995;28;20041;-68
2022/05/21 05:02:38;;;;;;;;;;;;;;;;;;5006156;28;20152;-66
2022/05/21 05:05:05;;;;;;;27.45;7.03;;;;;;;;;;5008359;28;19980;-67
2022/05/21 05:07:32;;;;;;;21.33;6.70;;;;;;;;;;5008137;28;20049;-66
2022/05/21 05:09:58;;;;;;;19.65;6.28;;;;;;;;;;5005953;28;20137;-69
2022/05/21 05:12:24;;;;;;;24.58;6.05;;;;;;;;;;5004814;28;20054;-65
2022/05/21 05:14:50;;;;;;;22.75;6.25;;;;;;;;;;5018662;28;20136;-66
2022/05/21 05:17:16;;;;;;;27.13;6.40;;;;;;;;;;5025583;28;20045;-70
2022/05/21 05:19:42;;;;;;;24.05;5.78;;;;;;;;;;5026378;28;20051;-66
2022/05/21 05:22:11;;;;;;;;;;;;;;;;;;5021485;28;20042;-66
2022/05/21 05:24:38;;;;;;;19.92;5.68;;;;;;;;;;5005975;28;20076;-66
2022/05/21 05:27:04;;;;;;;20.88;5.45;;;;;;;;;;5014117;28;20385;-66
2022/05/21 05:29:30;;;;;;;23.20;5.38;;;;;;;;;;5005439;28;20120;-67
2022/05/21 05:31:56;;;;;;;21.52;4.90;;;;;;;;;;5008175;28;20041;-63
2022/05/21 05:34:22;;;;;;;24.35;5.45;;;;;;;;;;5019148;28;20045;-66
2022/05/21 05:36:48;;;;;;;18.60;4.97;;;;;;;;;;5024182;28;20465;-67
2022/05/21 05:39:15;;;;;;;22.50;5.18;;;;;;;;;;5024755;28;20045;-66
2022/05/21 05:41:41;;;;;;;20.92;5.55;;;;;;;;;;5007651;28;20332;-68
2022/05/21 05:44:07;;;;;;;19.60;5.10;;;;;;;;;;5007236;28;20124;-64
2022/05/21 05:46:34;;;;;;;24.35;5.20;;;;;;;;;;5006764;28;20042;-66
2022/05/21 05:49:00;;;;;;;22.80;5.43;;;;;;;;;;5005733;28;20112;-65
2022/05/21 05:51:27;;;;;;;26.83;6.63;;;;;;;;;;5006564;28;20045;-65
2022/05/21 05:53:53;;;;;;;21.52;5.47;;;;;;;;;;5006217;28;20195;-71
2022/05/21 05:56:19;;;;;;;21.17;5.28;;;;;;;;;;5006012;28;20466;-71
2022/05/21 06:01:30;;;;;;;24.20;5.50;;;;;;;;;;5010944;28;20057;-65
2022/05/21 06:03:56;;;;;;;17.98;5.18;;;;;;;;;;5015028;28;20064;-66
2022/05/21 06:06:23;;;;;;;15.63;4.85;;;;;;;;;;5026562;28;20041;-66
2022/05/21 06:08:50;;;;;;;24.52;6.07;;;;;;;;;;5009945;28;20184;-68
2022/05/21 06:11:16;;;;;;;23.35;5.22;;;;;;;;;;5008079;28;20121;-66
2022/05/21 06:13:43;;;;;;;22.27;5.05;;;;;;;;;;5015858;28;20103;-66
2022/05/21 06:16:09;;;;;;;19.85;4.97;;;;;;;;;;5008463;28;20072;-67
2022/05/21 06:18:35;;;;;;;19.33;5.47;;;;;;;;;;5014250;28;20131;-67
2022/05/21 06:21:03;;;;;;;26.48;6.18;;;;;;;;;;5021390;28;20042;-67
2022/05/21 06:23:30;;;;;;;24.45;4.95;;;;;;;;;;5022696;28;20124;-66
2022/05/21 06:25:58;;;;;;;18.98;4.97;;;;;;;;;;5011421;28;20113;-70
2022/05/21 06:28:24;;;;;;;19.85;4.82;;;;;;;;;;5018472;28;20457;-68
2022/05/21 06:30:50;;;;;;;18.27;5.00;;;;;;;;;;5020380;28;20045;-67
2022/05/21 06:33:18;;;;;;;21.52;5.47;;;;;;;;;;5004453;28;20038;-68
2022/05/21 06:35:48;;;;;;;17.75;4.90;;;;;;;;;;5017327;28;20057;-66
2022/05/21 06:38:15;;;;;;;21.48;4.40;;;;;;;;;;5004476;28;20458;-72
2022/05/21 06:40:41;;;;;;;;;;;;;;;;;;5003489;28;20482;-68
2022/05/21 06:43:07;;;;;;;22.10;5.50;;;;;;;;;;5003367;28;19929;-65
2022/05/21 06:45:34;;;;;;;23.85;5.50;;;;;;;;;;5004634;28;20046;-67
2022/05/21 06:48:04;;;;;;;21.23;5.45;;;;;;;;;;5002344;28;20046;-66
2022/05/21 06:50:30;;;;;;;23.30;5.10;;;;;;;;;;5006121;28;20054;-65
2022/05/21 06:52:56;;;;;;;17.35;5.00;;;;;;;;;;5008448;28;20070;-65
2022/05/21 06:55:23;;;;;;;21.33;5.28;;;;;;;;;;5010084;28;20137;-67
2022/05/21 06:57:49;;;;;;;;;;;;;;;;;;5007919;28;20053;-68
2022/05/21 07:00:15;;;;;;;19.15;4.97;;;;;;;;;;5009278;28;19917;-66
2022/05/21 07:02:41;;;;;;;20.50;5.13;;;;;;;;;;5009563;28;20416;-70
2022/05/21 07:07:53;;;;;;;19.77;4.90;;;;;;;;;;5008386;28;20088;-72
2022/05/21 07:10:21;;;;;;;17.23;5.40;;;;;;;;;;5009711;28;20478;-66
2022/05/21 07:12:47;;;;;;;20.67;5.10;;;;;;;;;;5011405;28;20053;-64
2022/05/21 07:15:15;;;;;;;20.65;5.28;;;;;;;;;;5010993;28;20049;-64
2022/05/21 07:17:41;;;;;;;23.55;5.65;;;;;;;;;;5008797;28;20034;-66
2022/05/21 07:20:07;;;;;;;;;;;;;;;;;;5010957;28;20389;-66
2022/05/21 07:22:33;;;;;;;28.77;5.60;;;;;;;;;;5010535;28;19917;-65
2022/05/21 07:25:01;;;;;;;20.80;5.03;;;;;;;;;;5010541;28;20094;-67
2022/05/21 07:27:28;;;;;;;17.55;4.60;;;;;;;;;;5010755;28;20057;-66
2022/05/21 07:29:54;;;;;;;22.80;5.13;;;;;;;;;;5005761;28;20319;-65
2022/05/21 07:32:21;;;;;;;26.33;4.88;;;;;;;;;;5008475;28;20514;-66
2022/05/21 07:34:47;;;;;;;15.95;4.35;;;;;;;;;;5010954;28;20068;-65
2022/05/21 07:37:13;;;;;;;19.58;4.95;;;;;;;;;;5010345;28;20445;-66
2022/05/21 07:39:40;;;;;;;18.90;4.57;;;;;;;;;;5010898;28;20453;-72
2022/05/21 07:42:06;;;;;;;;;;;;;;;;;;5011075;28;20117;-64
2022/05/21 07:44:32;;;;;;;23.20;5.55;;;;;;;;;;5010335;28;19924;-66
2022/05/21 07:46:58;;;;;;;20.48;4.47;;;;;;;;;;5010715;28;20053;-66
2022/05/21 07:49:24;;;;;;;18.70;4.60;;;;;;;;;;5009546;28;20505;-68
2022/05/21 07:51:50;;;;;;;18.00;4.97;;;;;;;;;;5008892;28;20435;-67
2022/05/21 07:54:16;;;;;;;;;;;;;;;;;;5008641;28;20049;-72
2022/05/21 07:56:42;;;;;;;16.95;3.92;;;;;;;;;;5010026;28;20358;-65
2022/05/21 07:59:08;;;;;;;20.15;5.10;;;;;;;;;;5009594;28;20120;-78
2022/05/21 08:01:34;;;;;;;20.60;4.85;;;;;;;;;;5011023;28;20049;-64
2022/05/21 08:04:00;;;;;;;23.20;4.85;;;;;;;;;;5009754;28;20153;-64
2022/05/21 08:06:26;;;;;;;18.50;4.55;;;;;;;;;;5008314;28;20085;-64
2022/05/21 08:08:54;;;;;;;17.92;4.40;;;;;;;;;;5010673;28;20045;-65
2022/05/21 08:11:21;;;;;;;17.65;4.45;;;;;;;;;;5010346;28;20132;-67
2022/05/21 08:13:47;;;;;;;17.20;4.45;;;;;;;;;;5009272;28;20072;-65
2022/05/21 08:16:14;;;;;;;19.63;4.10;;;;;;;;;;5008963;28;20048;-65
2022/05/21 08:18:40;;;;;;;17.00;4.10;;;;;;;;;;5010109;28;20046;-67
2022/05/21 08:21:06;;;;;;;;;;;;;;;;;;5010387;28;20336;-80
2022/05/21 08:29:02;;;;;;;16.52;3.35;;;;;;;;;;5009500;28;20184;-67
2022/05/21 08:31:28;;;;;;;18.88;4.75;;;;;;;;;;5008109;28;20038;-67
2022/05/21 08:33:55;;;;;;;19.58;4.47;;;;;;;;;;5008308;28;20111;-66
2022/05/21 08:36:21;;;;;;;;;;;;;;;;;;5009495;28;20349;-67
2022/05/21 08:38:47;;;;;;;18.98;5.13;;;;;;;;;;5010278;28;19966;-69
2022/05/21 08:41:16;;;;;;;16.75;4.18;;;;;;;;;;5007889;28;20133;-67
2022/05/21 08:43:42;;;;;;;15.30;3.90;;;;;;;;;;5009956;28;20042;-81
2022/05/21 08:46:09;;;;;;;16.80;3.97;;;;;;;;;;5007839;28;20148;-70
2022/05/21 08:48:38;;;;;;;16.27;4.50;;;;;;;;;;5009320;28;20061;-67
2022/05/21 08:51:08;;;;;;;18.05;4.45;;;;;;;;;;5008877;28;20050;-64
2022/05/21 08:53:41;;;;;;;18.70;3.65;;;;;;;;;;5008283;28;20069;-76
2022/05/21 08:56:07;;;;;;;16.67;4.07;;;;;;;;;;5008141;28;20332;-65
2022/05/21 08:59:09;;;;;;;16.73;3.55;;;;;;;;;;5009572;28;20042;-70
2022/05/21 09:01:37;;;;;;;14.82;3.55;;;;;;;;;;4967523;28;20062;-68
2022/05/21 09:04:04;;;;;;;16.50;3.78;;;;;;;;;;5001048;28;20058;-69
2022/05/21 09:06:35;;;;;;;19.88;3.58;;;;;;;;;;5008219;28;20050;-71
2022/05/21 09:09:08;;;;;;;21.83;3.92;;;;;;;;;;5007584;28;20046;-65
2022/05/21 09:11:41;;;;;;;25.02;4.32;;;;;;;;;;4989130;28;20058;-66
2022/05/21 09:14:16;;;;;;;19.58;3.70;;;;;;;;;;4989178;28;20054;-66
2022/05/21 09:16:55;;;;;;;18.90;4.03;;;;;;;;;;4988520;28;20463;-70
2022/05/21 09:19:32;;;;;;;22.58;4.82;;;;;;;;;;4989403;28;20062;-64
2022/05/21 09:22:02;;;;;;;18.27;4.30;;;;;;;;;;5005523;28;20100;-66
2022/05/21 09:24:33;;;;;;;22.55;4.30;;;;;;;;;;5008918;28;20065;-64
2022/05/21 09:26:59;;;;;;;21.95;4.22;;;;;;;;;;5009345;28;20093;-65
2022/05/21 09:29:31;;;;;;;15.25;3.95;;;;;;;;;;5008412;28;20132;-66
2022/05/21 09:31:58;;;;;;;12.13;3.35;;;;;;;;;;5006543;28;20050;-66
2022/05/21 09:34:27;;;;;;;18.73;4.35;;;;;;;;;;5007707;28;20152;-73
2022/05/21 09:36:53;;;;;;;19.38;4.20;;;;;;;;;;5008419;28;20119;-66
2022/05/21 09:39:19;;;;;;;;;;;;;;;;;;5008201;28;20108;-66
2022/05/21 09:41:45;;;;;;;16.17;3.70;;;;;;;;;;5007026;28;19925;-67
2022/05/21 09:47:16;;;;;;;16.00;4.15;;;;;;;;;;5007580;28;20363;-67
2022/05/21 09:49:43;;;;;;;16.58;3.65;;;;;;;;;;5006201;28;20369;-67
2022/05/21 09:52:20;;;;;;;14.43;3.33;;;;;;;;;;5007571;28;20129;-67
2022/05/21 09:54:46;;;;;;;15.48;3.60;;;;;;;;;;5007361;28;20443;-69
2022/05/21 09:57:31;;;;;;;16.88;3.78;;;;;;;;;;5005806;28;20045;-68
2022/05/21 10:00:01;;;;;;;15.52;3.72;;;;;;;;;;5007226;28;20121;-68
2022/05/21 10:02:36;;;;;;;16.23;3.70;;;;;;;;;;5007462;28;20060;-67
2022/05/21 10:05:02;;;;;;;14.93;3.20;;;;;;;;;;5008382;28;20060;-67
2022/05/21 10:13:07;;;;;;;16.45;3.90;;;;;;;;;;5007820;28;20049;-67
2022/05/21 10:15:42;;;;;;;13.80;3.50;;;;;;;;;;5007215;28;20133;-67
2022/05/21 10:18:23;;;;;;;17.05;3.88;;;;;;;;;;5007893;28;20175;-65
2022/05/21 10:20:54;;;;;;;15.82;3.35;;;;;;;;;;5006873;28;20438;-66
2022/05/21 10:23:39;;;;;;;19.73;3.78;;;;;;;;;;5007849;28;20428;-75
2022/05/21 10:26:17;;;;;;;15.80;3.22;;;;;;;;;;5005689;28;20505;-71
2022/05/21 10:29:13;;;;;;;12.05;2.92;;;;;;;;;;5007944;28;20072;-68
2022/05/21 10:32:05;;;;;;;14.00;3.35;;;;;;;;;;4972086;28;20435;-68
2022/05/21 10:34:47;;;;;;;13.77;3.17;;;;;;;;;;4991709;28;20058;-66
2022/05/21 10:37:43;;;;;;;17.45;3.38;;;;;;;;;;4991592;28;20069;-68
2022/05/21 10:40:29;;;;;;;14.70;3.13;;;;;;;;;;4977794;28;20155;-70
2022/05/21 10:43:01;;;;;;;9.20;2.65;;;;;;;;;;5011330;28;20147;-77
2022/05/21 10:45:33;;;;;;;13.27;3.13;;;;;;;;;;5011178;28;20054;-77
2022/05/21 10:48:09;;;;;;;14.52;3.22;;;;;;;;;;5011739;28;20049;-66
2022/05/21 10:50:54;;;;;;;13.00;3.42;;;;;;;;;;5011178;28;20064;-65
2022/05/21 10:53:39;;;;;;;11.50;2.72;;;;;;;;;;5009326;28;20088;-68
2022/05/21 10:56:17;;;;;;;11.63;3.10;;;;;;;;;;5011279;28;20160;-66
2022/05/21 10:58:43;;;;;;;9.23;2.70;;;;;;;;;;5010398;28;20057;-63
2022/05/21 11:01:14;;;;;;;13.80;3.05;;;;;;;;;;5010981;28;20060;-64
2022/05/21 11:04:00;;;;;;;17.13;3.50;;;;;;;;;;5006518;28;20065;-71
2022/05/21 11:06:26;;;;;;;14.32;3.17;;;;;;;;;;5008888;28;20204;-68
2022/05/21 11:09:02;;;;;;;15.82;2.72;;;;;;;;;;5011356;28;20050;-65
2022/05/21 11:11:37;;;;;;;12.70;2.80;;;;;;;;;;5010281;28;20362;-67
2022/05/21 11:14:07;;;;;;;12.80;2.85;;;;;;;;;;5007079;28;20050;-66
2022/05/21 11:16:41;;;;;;;14.05;2.83;;;;;;;;;;5011195;28;20433;-67
2022/05/21 11:19:26;;;;;;;13.93;3.35;;;;;;;;;;5011537;28;20389;-66
2022/05/21 11:21:54;;;;;;;15.23;3.20;;;;;;;;;;5010936;28;20054;-72
2022/05/21 11:24:24;;;;;;;15.75;3.10;;;;;;;;;;5010951;28;20128;-69
2022/05/21 11:26:56;;;;;;;17.15;3.40;;;;;;;;;;5008878;28;20064;-71
2022/05/21 11:29:41;;;;;;;17.58;3.80;;;;;;;;;;5010388;28;20077;-74
2022/05/21 11:38:19;;;;;;;17.65;3.75;;;;;;;;;;4967991;28;20102;-68
2022/05/21 11:40:51;;;;;;;14.57;2.90;;;;;;;;;;5007365;28;20054;-79
2022/05/21 11:43:18;;;;;;;13.73;2.90;;;;;;;;;;5010436;28;20112;-72
2022/05/21 11:46:05;;;;;;;16.17;3.25;;;;;;;;;;5009464;28;20413;-71
2022/05/21 11:48:31;;;;;;;14.30;3.42;;;;;;;;;;5009823;28;20069;-73
2022/05/21 11:51:16;;;;;;;30.70;3.80;;;;;;;;;;5008001;28;20099;-71
2022/05/21 11:53:44;;;;;;;15.25;2.97;;;;;;;;;;5009283;28;20583;-73
2022/05/21 11:56:12;;;;;;;14.63;3.20;;;;;;;;;;5008894;28;20141;-77
2022/05/21 11:58:53;;;;;;;17.13;3.58;;;;;;;;;;5008971;28;20045;-74
2022/05/21 12:01:40;;;;;;;10.27;2.65;;;;;;;;;;5009001;28;20140;-69
2022/05/21 12:04:06;;;;;;;;;;;;;;;;;;4989396;28;20384;-68
2022/05/21 12:06:39;;;;;;;19.20;4.03;;;;;;;;;;4989888;28;19925;-65
2022/05/21 12:09:10;;;;;;;19.38;3.63;;;;;;;;;;4989017;28;20062;-67
2022/05/21 12:11:36;;;;;;;18.70;3.10;;;;;;;;;;4989270;28;20447;-68
2022/05/21 12:14:06;;;;;;;14.15;3.53;;;;;;;;;;5007547;28;20049;-67
2022/05/21 12:16:33;;;;;;;11.27;3.03;;;;;;;;;;5009188;28;20216;-71
2022/05/21 12:19:00;;;;;;;17.38;3.40;;;;;;;;;;5009767;28;20046;-70
2022/05/21 12:24:00;;;;;;;17.00;3.55;;;;;;;;;;5008454;28;20054;-66
2022/05/21 12:26:30;;;;;;;16.65;3.55;;;;;;;;;;5008885;28;20049;-65
2022/05/21 12:28:56;;;;;;;17.33;3.42;;;;;;;;;;5009168;28;20088;-68
2022/05/21 12:31:24;;;;;;;12.55;3.15;;;;;;;;;;5008723;28;20046;-67
2022/05/21 12:33:50;;;;;;;15.98;3.55;;;;;;;;;;5007530;28;20038;-70
2022/05/21 12:36:24;;;;;;;12.93;2.60;;;;;;;;;;5009381;28;20275;-78
2022/05/21 12:38:52;;;;;;;13.98;2.78;;;;;;;;;;4991235;28;20117;-71
2022/05/21 12:41:24;;;;;;;13.00;2.85;;;;;;;;;;5009363;28;20050;-76
2022/05/21 12:43:51;;;;;;;12.85;3.25;;;;;;;;;;5008610;28;20065;-67
2022/05/21 12:46:20;;;;;;;12.07;2.60;;;;;;;;;;5006986;28;20041;-65
2022/05/21 12:48:47;;;;;;;11.25;2.65;;;;;;;;;;5008946;28;20050;-72
2022/05/21 12:51:22;;;;;;;14.77;2.72;;;;;;;;;;5008927;28;20058;-76
2022/05/21 12:53:52;;;;;;;11.98;3.22;;;;;;;;;;5006978;28;20074;-70
2022/05/21 12:56:38;;;;;;;10.45;2.53;;;;;;;;;;5008065;28;20126;-73
2022/05/21 12:59:05;;;;;;;11.68;2.35;;;;;;;;;;5008875;28;20057;-67
2022/05/21 13:01:31;;;;;;;10.73;2.50;;;;;;;;;;5008177;28;20058;-69
2022/05/21 13:03:59;;;;;;;8.50;2.47;;;;;;;;;;5008471;28;20060;-68
2022/05/21 13:06:27;;;;;;;9.50;2.30;;;;;;;;;;5007376;28;20049;-71
2022/05/21 13:08:53;;;;;;;14.20;2.47;;;;;;;;;;5008011;28;20100;-67
2022/05/21 13:11:24;;;;;;;12.70;2.25;;;;;;;;;;5008211;28;20062;-73
2022/05/21 13:14:00;;;;;;;10.32;2.47;;;;;;;;;;5008036;28;20087;-69
2022/05/21 13:16:26;;;;;;;11.07;2.70;;;;;;;;;;5007344;28;20120;-67
2022/05/21 13:19:12;;;;;;;10.38;2.80;;;;;;;;;;5007943;28;20416;-64
2022/05/21 13:21:50;;;;;;;8.77;2.22;;;;;;;;;;5008069;28;20042;-66
2022/05/21 13:24:55;;;;;;;13.68;3.05;;;;;;;;;;5008404;28;20060;-75
2022/05/21 13:27:23;;;;;;;14.77;2.70;;;;;;;;;;4965703;28;20046;-67
2022/05/21 13:29:50;;;;;;;11.07;2.70;;;;;;;;;;4966064;28;20149;-69
2022/05/21 13:32:23;;;;;;;12.15;2.60;;;;;;;;;;4977650;28;20066;-67
2022/05/21 13:34:49;;;;;;;12.50;2.88;;;;;;;;;;4988146;28;20100;-67
2022/05/21 13:37:16;;;;;;;16.00;2.90;;;;;;;;;;4995420;28;20069;-76
2022/05/21 13:39:42;;;;;;;38.85;4.03;;;;;;;;;;5006879;28;20124;-65
2022/05/21 13:42:13;;;;;;;12.43;2.42;;;;;;;;;;5007578;28;20433;-79
2022/05/21 13:44:44;;;;;;;14.65;2.92;;;;;;;;;;5007368;28;20565;-67
2022/05/21 13:47:16;;;;;;;11.25;2.83;;;;;;;;;;5006773;28;20049;-67
2022/05/21 13:49:52;;;;;;;11.25;3.05;;;;;;;;;;5007360;28;20054;-66
2022/05/21 13:52:18;;;;;;;30.30;4.05;;;;;;;;;;5008082;28;20050;-70
2022/05/21 13:54:44;;;;;;;;;;;;;;;;;;5008044;28;20045;-63
2022/05/21 13:57:10;;;;;;;14.77;3.20;;;;;;;;;;5007928;28;20088;-63
2022/05/21 13:59:37;;;;;;;;;;;;;;;;;;5007630;28;20045;-63
2022/05/21 14:02:32;;;;;;;16.58;3.67;;;;;;;;;;5021689;28;20293;-72
2022/05/21 14:04:59;;;;;;;14.60;3.30;;;;;;;;;;4997684;28;20390;-63
2022/05/21 14:07:25;;;;;;;;;;;;;;;;;;5007848;28;20042;-64
2022/05/21 14:09:54;;;;;;;14.27;4.07;;;;;;;;;;5004518;28;19940;-62
2022/05/21 14:12:32;;;;;;;14.93;3.75;;;;;;;;;;5005688;28;20057;-63
2022/05/21 14:14:59;;;;;;;14.23;3.30;;;;;;;;;;5007023;28;20049;-63
2022/05/21 14:17:33;;;;;;;14.73;3.00;;;;;;;;;;5005798;28;20159;-64
2022/05/21 14:20:14;;;;;;;17.10;3.40;;;;;;;;;;5006194;28;20437;-66
2022/05/21 14:22:41;;;;;;;13.73;3.08;;;;;;;;;;5005144;28;20489;-63
2022/05/21 14:25:24;;;;;;;13.38;2.85;;;;;;;;;;5004151;28;20049;-64
2022/05/21 14:28:01;;;;;;;17.48;3.42;;;;;;;;;;5007128;28;20061;-64
2022/05/21 14:30:29;;;;;;;14.43;3.38;;;;;;;;;;5007067;28;20504;-64
2022/05/21 14:32:55;;;;;;;13.88;3.00;;;;;;;;;;5007215;28;20412;-64
2022/05/21 14:35:21;;;;;;;15.45;3.17;;;;;;;;;;5005935;28;20099;-72
2022/05/21 14:37:55;;;;;;;15.13;3.75;;;;;;;;;;5007569;28;20176;-65
2022/05/21 14:40:22;;;;;;;16.15;3.05;;;;;;;;;;5007649;28;20419;-65
2022/05/21 14:42:49;;;;;;;19.90;3.50;;;;;;;;;;5007550;28;20041;-63
2022/05/21 14:45:20;;;;;;;12.38;3.17;;;;;;;;;;5006653;28;20046;-64
2022/05/21 14:47:53;;;;;;;19.45;4.13;;;;;;;;;;5003277;28;20052;-72
2022/05/21 14:53:11;;;;;;;14.38;4.05;;;;;;;;;;4993198;28;20073;-65
2022/05/21 14:55:37;;;;;;;13.05;3.10;;;;;;;;;;5007288;28;20390;-65
2022/05/21 14:58:04;;;;;;;14.23;3.65;;;;;;;;;;5007225;28;20195;-65
2022/05/21 15:00:30;;;;;;;14.13;3.40;;;;;;;;;;5006336;28;20054;-68
2022/05/21 15:02:57;;;;;;;16.17;3.30;;;;;;;;;;5006683;28;20458;-65
2022/05/21 15:05:23;;;;;;;16.42;3.72;;;;;;;;;;5005692;28;20144;-65
2022/05/21 15:07:51;;;;;;;14.30;3.30;;;;;;;;;;5004583;28;20509;-66
2022/05/21 15:10:18;;;;;;;18.25;3.95;;;;;;;;;;5013143;28;20045;-66
2022/05/21 15:12:44;;;;;;;19.00;4.40;;;;;;;;;;5008974;28;20133;-64
2022/05/21 15:15:13;;;;;;;14.98;3.83;;;;;;;;;;5008957;28;20057;-67
2022/05/21 15:17:39;;;;;;;20.83;4.35;;;;;;;;;;4995707;28;20045;-65
2022/05/21 15:20:06;;;;;;;16.73;4.13;;;;;;;;;;5004938;28;20037;-70
2022/05/21 15:22:34;;;;;;;13.75;3.28;;;;;;;;;;5008785;28;20382;-68
2022/05/21 15:25:00;;;;;;;15.25;4.22;;;;;;;;;;5009616;28;20049;-69
2022/05/21 15:27:26;;;;;;;15.95;3.88;;;;;;;;;;5014337;28;20133;-64
2022/05/21 15:29:52;;;;;;;17.75;4.15;;;;;;;;;;5007335;28;20050;-65